sensor_id;sensor_type;location;lat;lon;timestamp;P1;durP1;ratioP1;P2;durP2;ratioP2
44440;SDS011;30146;52.268;20.944;2022-07-19T00:01:35;13.10;;;5.00;;
44440;SDS011;30146;52.268;20.944;2022-07-19T00:04:07;10.60;;;4.50;;
44440;SDS011;30146;52.268;20.944;2022-07-19T00:06:38;11.30;;;5.50;;
44440;SDS011;30146;52.268;20.944;2022-07-19T00:09:10;7.80;;;4.60;;
44440;SDS011;30146;52.268;20.944;2022-07-19T00:11:43;10.70;;;4.50;;
44440;SDS011;30146;52.268;20.944;2022-07-19T00:14:14;8.70;;;4.50;;
44440;SDS011;30146;52.268;20.944;2022-07-19T00:16:46;12.20;;;5.00;;
44440;SDS011;30146;52.268;20.944;2022-07-19T00:19:18;10.80;;;5.00;;
44440;SDS011;30146;52.268;20.944;2022-07-19T00:21:49;12.00;;;4.90;;
44440;SDS011;30146;52.268;20.944;2022-07-19T00:24:20;10.30;;;4.90;;
44440;SDS011;30146;52.268;20.944;2022-07-19T00:26:52;8.60;;;4.80;;
44440;SDS011;30146;52.268;20.944;2022-07-19T00:29:23;7.20;;;4.20;;
44440;SDS011;30146;52.268;20.944;2022-07-19T00:31:54;13.80;;;5.40;;
44440;SDS011;30146;52.268;20.944;2022-07-19T00:34:25;14.20;;;4.80;;
44440;SDS011;30146;52.268;20.944;2022-07-19T00:36:57;8.40;;;4.60;;
44440;SDS011;30146;52.268;20.944;2022-07-19T00:39:28;9.00;;;4.40;;
44440;SDS011;30146;52.268;20.944;2022-07-19T00:41:59;9.30;;;4.70;;
44440;SDS011;30146;52.268;20.944;2022-07-19T00:44:30;15.00;;;5.10;;
44440;SDS011;30146;52.268;20.944;2022-07-19T00:47:02;7.70;;;4.80;;
44440;SDS011;30146;52.268;20.944;2022-07-19T00:49:34;11.50;;;5.30;;
44440;SDS011;30146;52.268;20.944;2022-07-19T00:52:06;17.20;;;5.60;;
44440;SDS011;30146;52.268;20.944;2022-07-19T00:54:38;8.30;;;4.70;;
44440;SDS011;30146;52.268;20.944;2022-07-19T00:57:11;9.20;;;4.90;;
44440;SDS011;30146;52.268;20.944;2022-07-19T00:59:44;7.30;;;4.80;;
44440;SDS011;30146;52.268;20.944;2022-07-19T01:02:17;9.40;;;5.00;;
44440;SDS011;30146;52.268;20.944;2022-07-19T01:04:49;12.70;;;5.80;;
44440;SDS011;30146;52.268;20.944;2022-07-19T01:07:24;7.30;;;5.10;;
44440;SDS011;30146;52.268;20.944;2022-07-19T01:09:55;10.30;;;4.90;;
44440;SDS011;30146;52.268;20.944;2022-07-19T01:12:27;17.60;;;5.20;;
44440;SDS011;30146;52.268;20.944;2022-07-19T01:14:59;8.40;;;4.70;;
44440;SDS011;30146;52.268;20.944;2022-07-19T01:17:30;11.40;;;4.40;;
44440;SDS011;30146;52.268;20.944;2022-07-19T01:20:02;9.60;;;4.50;;
44440;SDS011;30146;52.268;20.944;2022-07-19T01:22:35;10.80;;;4.90;;
44440;SDS011;30146;52.268;20.944;2022-07-19T01:25:08;8.90;;;4.80;;
44440;SDS011;30146;52.268;20.944;2022-07-19T01:27:40;8.10;;;4.20;;
44440;SDS011;30146;52.268;20.944;2022-07-19T01:30:13;13.80;;;4.70;;
44440;SDS011;30146;52.268;20.944;2022-07-19T01:32:46;7.60;;;4.20;;
44440;SDS011;30146;52.268;20.944;2022-07-19T01:35:18;8.50;;;4.10;;
44440;SDS011;30146;52.268;20.944;2022-07-19T01:37:51;11.90;;;4.30;;
44440;SDS011;30146;52.268;20.944;2022-07-19T01:40:23;10.20;;;4.20;;
44440;SDS011;30146;52.268;20.944;2022-07-19T01:42:58;12.20;;;4.60;;
44440;SDS011;30146;52.268;20.944;2022-07-19T01:45:30;8.20;;;4.20;;
44440;SDS011;30146;52.268;20.944;2022-07-19T01:48:01;9.70;;;4.40;;
44440;SDS011;30146;52.268;20.944;2022-07-19T01:50:33;10.00;;;4.40;;
44440;SDS011;30146;52.268;20.944;2022-07-19T01:53:04;7.80;;;5.10;;
44440;SDS011;30146;52.268;20.944;2022-07-19T01:55:36;7.20;;;4.30;;
44440;SDS011;30146;52.268;20.944;2022-07-19T01:58:08;9.00;;;4.00;;
44440;SDS011;30146;52.268;20.944;2022-07-19T02:00:39;6.60;;;4.10;;
44440;SDS011;30146;52.268;20.944;2022-07-19T02:03:10;8.10;;;4.50;;
44440;SDS011;30146;52.268;20.944;2022-07-19T02:05:41;8.00;;;4.20;;
44440;SDS011;30146;52.268;20.944;2022-07-19T02:08:16;6.70;;;4.30;;
44440;SDS011;30146;52.268;20.944;2022-07-19T02:10:47;9.70;;;4.80;;
44440;SDS011;30146;52.268;20.944;2022-07-19T02:13:18;6.80;;;4.40;;
44440;SDS011;30146;52.268;20.944;2022-07-19T02:15:52;8.50;;;4.10;;
44440;SDS011;30146;52.268;20.944;2022-07-19T02:18:23;9.10;;;4.90;;
44440;SDS011;30146;52.268;20.944;2022-07-19T02:20:56;12.20;;;4.50;;
44440;SDS011;30146;52.268;20.944;2022-07-19T02:23:28;6.20;;;4.40;;
44440;SDS011;30146;52.268;20.944;2022-07-19T02:25:59;6.50;;;4.30;;
44440;SDS011;30146;52.268;20.944;2022-07-19T02:28:30;6.70;;;4.60;;
44440;SDS011;30146;52.268;20.944;2022-07-19T02:31:22;7.90;;;4.40;;
44440;SDS011;30146;52.268;20.944;2022-07-19T02:33:53;10.90;;;4.60;;
44440;SDS011;30146;52.268;20.944;2022-07-19T02:36:24;6.80;;;4.60;;
44440;SDS011;30146;52.268;20.944;2022-07-19T02:38:56;10.50;;;4.30;;
44440;SDS011;30146;52.268;20.944;2022-07-19T02:41:27;8.30;;;4.40;;
44440;SDS011;30146;52.268;20.944;2022-07-19T02:44:00;10.20;;;4.70;;
44440;SDS011;30146;52.268;20.944;2022-07-19T02:46:31;10.00;;;4.70;;
44440;SDS011;30146;52.268;20.944;2022-07-19T02:49:03;12.70;;;4.90;;
44440;SDS011;30146;52.268;20.944;2022-07-19T02:51:37;10.10;;;5.00;;
44440;SDS011;30146;52.268;20.944;2022-07-19T02:54:08;8.50;;;4.60;;
44440;SDS011;30146;52.268;20.944;2022-07-19T02:56:39;7.10;;;4.10;;
44440;SDS011;30146;52.268;20.944;2022-07-19T02:59:11;13.90;;;5.40;;
44440;SDS011;30146;52.268;20.944;2022-07-19T03:01:42;10.20;;;4.60;;
44440;SDS011;30146;52.268;20.944;2022-07-19T03:04:13;15.30;;;5.50;;
44440;SDS011;30146;52.268;20.944;2022-07-19T03:06:45;8.10;;;4.60;;
44440;SDS011;30146;52.268;20.944;2022-07-19T03:09:16;10.60;;;4.50;;
44440;SDS011;30146;52.268;20.944;2022-07-19T03:11:48;11.20;;;5.80;;
44440;SDS011;30146;52.268;20.944;2022-07-19T03:14:19;10.60;;;5.10;;
44440;SDS011;30146;52.268;20.944;2022-07-19T03:16:50;10.10;;;5.10;;
44440;SDS011;30146;52.268;20.944;2022-07-19T03:19:22;10.10;;;5.30;;
44440;SDS011;30146;52.268;20.944;2022-07-19T03:21:54;10.60;;;5.10;;
44440;SDS011;30146;52.268;20.944;2022-07-19T03:24:26;6.90;;;4.50;;
44440;SDS011;30146;52.268;20.944;2022-07-19T03:27:00;9.60;;;5.40;;
44440;SDS011;30146;52.268;20.944;2022-07-19T03:29:31;9.80;;;5.10;;
44440;SDS011;30146;52.268;20.944;2022-07-19T03:32:03;11.10;;;5.30;;
44440;SDS011;30146;52.268;20.944;2022-07-19T03:34:35;14.90;;;5.50;;
44440;SDS011;30146;52.268;20.944;2022-07-19T03:37:06;10.20;;;5.40;;
44440;SDS011;30146;52.268;20.944;2022-07-19T03:39:37;10.30;;;4.70;;
44440;SDS011;30146;52.268;20.944;2022-07-19T03:42:08;10.40;;;5.50;;
44440;SDS011;30146;52.268;20.944;2022-07-19T03:44:40;10.90;;;5.80;;
44440;SDS011;30146;52.268;20.944;2022-07-19T03:47:11;11.70;;;5.00;;
44440;SDS011;30146;52.268;20.944;2022-07-19T03:49:42;9.00;;;5.50;;
44440;SDS011;30146;52.268;20.944;2022-07-19T03:52:14;10.10;;;5.90;;
44440;SDS011;30146;52.268;20.944;2022-07-19T03:54:49;14.00;;;5.90;;
44440;SDS011;30146;52.268;20.944;2022-07-19T03:57:21;14.50;;;5.40;;
44440;SDS011;30146;52.268;20.944;2022-07-19T03:59:52;12.30;;;5.70;;
44440;SDS011;30146;52.268;20.944;2022-07-19T04:02:23;10.70;;;5.30;;
44440;SDS011;30146;52.268;20.944;2022-07-19T04:04:55;14.80;;;5.30;;
44440;SDS011;30146;52.268;20.944;2022-07-19T04:07:28;11.30;;;5.40;;
44440;SDS011;30146;52.268;20.944;2022-07-19T04:09:59;15.40;;;5.60;;
44440;SDS011;30146;52.268;20.944;2022-07-19T04:12:34;8.80;;;4.70;;
44440;SDS011;30146;52.268;20.944;2022-07-19T04:15:07;14.90;;;6.30;;
44440;SDS011;30146;52.268;20.944;2022-07-19T04:17:39;13.00;;;6.10;;
44440;SDS011;30146;52.268;20.944;2022-07-19T04:20:13;10.90;;;5.90;;
44440;SDS011;30146;52.268;20.944;2022-07-19T04:22:44;10.90;;;5.60;;
44440;SDS011;30146;52.268;20.944;2022-07-19T04:25:19;11.00;;;5.50;;
44440;SDS011;30146;52.268;20.944;2022-07-19T04:27:51;15.90;;;7.10;;
44440;SDS011;30146;52.268;20.944;2022-07-19T04:30:23;10.60;;;5.70;;
44440;SDS011;30146;52.268;20.944;2022-07-19T04:32:54;10.30;;;5.60;;
44440;SDS011;30146;52.268;20.944;2022-07-19T04:35:26;9.00;;;5.30;;
44440;SDS011;30146;52.268;20.944;2022-07-19T04:37:57;12.80;;;6.10;;
44440;SDS011;30146;52.268;20.944;2022-07-19T04:40:29;11.20;;;5.40;;
44440;SDS011;30146;52.268;20.944;2022-07-19T04:43:01;13.40;;;5.20;;
44440;SDS011;30146;52.268;20.944;2022-07-19T04:45:33;14.20;;;5.50;;
44440;SDS011;30146;52.268;20.944;2022-07-19T04:48:06;13.40;;;5.20;;
44440;SDS011;30146;52.268;20.944;2022-07-19T04:50:41;12.20;;;6.10;;
44440;SDS011;30146;52.268;20.944;2022-07-19T04:53:12;9.80;;;5.20;;
44440;SDS011;30146;52.268;20.944;2022-07-19T04:55:43;9.70;;;5.40;;
44440;SDS011;30146;52.268;20.944;2022-07-19T04:58:15;9.20;;;4.90;;
44440;SDS011;30146;52.268;20.944;2022-07-19T05:00:47;11.10;;;5.60;;
44440;SDS011;30146;52.268;20.944;2022-07-19T05:03:18;10.40;;;5.60;;
44440;SDS011;30146;52.268;20.944;2022-07-19T05:05:50;12.60;;;5.60;;
44440;SDS011;30146;52.268;20.944;2022-07-19T05:08:21;10.40;;;5.50;;
44440;SDS011;30146;52.268;20.944;2022-07-19T05:11:04;9.50;;;4.80;;
44440;SDS011;30146;52.268;20.944;2022-07-19T05:13:36;10.90;;;5.10;;
44440;SDS011;30146;52.268;20.944;2022-07-19T05:16:08;10.90;;;5.40;;
44440;SDS011;30146;52.268;20.944;2022-07-19T05:18:39;12.50;;;5.40;;
44440;SDS011;30146;52.268;20.944;2022-07-19T05:21:12;11.50;;;6.30;;
44440;SDS011;30146;52.268;20.944;2022-07-19T05:23:43;11.90;;;5.40;;
44440;SDS011;30146;52.268;20.944;2022-07-19T05:26:15;9.70;;;5.60;;
44440;SDS011;30146;52.268;20.944;2022-07-19T05:28:51;12.30;;;6.00;;
44440;SDS011;30146;52.268;20.944;2022-07-19T05:31:25;11.40;;;5.50;;
44440;SDS011;30146;52.268;20.944;2022-07-19T05:33:57;17.50;;;6.00;;
44440;SDS011;30146;52.268;20.944;2022-07-19T05:36:29;23.60;;;7.00;;
44440;SDS011;30146;52.268;20.944;2022-07-19T05:39:07;10.00;;;5.10;;
44440;SDS011;30146;52.268;20.944;2022-07-19T05:41:38;10.20;;;5.70;;
44440;SDS011;30146;52.268;20.944;2022-07-19T05:44:10;13.20;;;5.90;;
44440;SDS011;30146;52.268;20.944;2022-07-19T05:46:46;9.30;;;4.90;;
44440;SDS011;30146;52.268;20.944;2022-07-19T05:49:26;14.50;;;5.60;;
44440;SDS011;30146;52.268;20.944;2022-07-19T05:52:00;12.50;;;6.30;;
44440;SDS011;30146;52.268;20.944;2022-07-19T05:54:34;12.20;;;5.70;;
44440;SDS011;30146;52.268;20.944;2022-07-19T05:57:06;12.50;;;5.80;;
44440;SDS011;30146;52.268;20.944;2022-07-19T05:59:37;8.30;;;5.40;;
44440;SDS011;30146;52.268;20.944;2022-07-19T06:02:09;16.70;;;6.00;;
44440;SDS011;30146;52.268;20.944;2022-07-19T06:04:43;17.90;;;5.80;;
44440;SDS011;30146;52.268;20.944;2022-07-19T06:07:15;12.10;;;5.80;;
44440;SDS011;30146;52.268;20.944;2022-07-19T06:09:46;16.40;;;5.30;;
44440;SDS011;30146;52.268;20.944;2022-07-19T06:12:17;10.60;;;5.60;;
44440;SDS011;30146;52.268;20.944;2022-07-19T06:14:48;13.30;;;5.50;;
44440;SDS011;30146;52.268;20.944;2022-07-19T06:17:20;9.80;;;5.90;;
44440;SDS011;30146;52.268;20.944;2022-07-19T06:19:52;18.20;;;5.60;;
44440;SDS011;30146;52.268;20.944;2022-07-19T06:22:23;12.50;;;6.40;;
44440;SDS011;30146;52.268;20.944;2022-07-19T06:24:54;11.70;;;5.10;;
44440;SDS011;30146;52.268;20.944;2022-07-19T06:27:26;13.50;;;5.70;;
44440;SDS011;30146;52.268;20.944;2022-07-19T06:29:57;11.40;;;5.00;;
44440;SDS011;30146;52.268;20.944;2022-07-19T06:32:31;14.40;;;5.60;;
44440;SDS011;30146;52.268;20.944;2022-07-19T06:35:03;9.70;;;4.90;;
44440;SDS011;30146;52.268;20.944;2022-07-19T06:37:36;16.60;;;7.90;;
44440;SDS011;30146;52.268;20.944;2022-07-19T06:40:08;14.40;;;6.40;;
44440;SDS011;30146;52.268;20.944;2022-07-19T06:42:42;10.70;;;6.20;;
44440;SDS011;30146;52.268;20.944;2022-07-19T06:45:14;9.40;;;5.30;;
44440;SDS011;30146;52.268;20.944;2022-07-19T06:47:45;9.40;;;5.80;;
44440;SDS011;30146;52.268;20.944;2022-07-19T06:50:21;12.00;;;5.80;;
44440;SDS011;30146;52.268;20.944;2022-07-19T06:53:24;9.00;;;5.40;;
44440;SDS011;30146;52.268;20.944;2022-07-19T06:55:55;10.00;;;5.70;;
44440;SDS011;30146;52.268;20.944;2022-07-19T06:58:27;13.20;;;5.80;;
44440;SDS011;30146;52.268;20.944;2022-07-19T07:01:08;10.00;;;5.80;;
44440;SDS011;30146;52.268;20.944;2022-07-19T07:03:40;11.20;;;5.40;;
44440;SDS011;30146;52.268;20.944;2022-07-19T07:06:11;14.60;;;6.30;;
44440;SDS011;30146;52.268;20.944;2022-07-19T07:08:42;9.60;;;4.70;;
44440;SDS011;30146;52.268;20.944;2022-07-19T07:11:14;11.90;;;5.60;;
44440;SDS011;30146;52.268;20.944;2022-07-19T07:13:46;9.10;;;5.10;;
44440;SDS011;30146;52.268;20.944;2022-07-19T07:16:17;13.10;;;5.20;;
44440;SDS011;30146;52.268;20.944;2022-07-19T07:18:50;16.50;;;6.40;;
44440;SDS011;30146;52.268;20.944;2022-07-19T07:21:21;11.70;;;6.60;;
44440;SDS011;30146;52.268;20.944;2022-07-19T07:23:53;15.40;;;5.90;;
44440;SDS011;30146;52.268;20.944;2022-07-19T07:26:24;16.40;;;5.30;;
44440;SDS011;30146;52.268;20.944;2022-07-19T07:28:55;10.50;;;6.30;;
44440;SDS011;30146;52.268;20.944;2022-07-19T07:31:27;11.70;;;6.30;;
44440;SDS011;30146;52.268;20.944;2022-07-19T07:33:59;11.60;;;5.40;;
44440;SDS011;30146;52.268;20.944;2022-07-19T07:36:42;13.70;;;5.80;;
44440;SDS011;30146;52.268;20.944;2022-07-19T07:39:13;10.20;;;5.30;;
44440;SDS011;30146;52.268;20.944;2022-07-19T07:41:56;16.00;;;5.80;;
44440;SDS011;30146;52.268;20.944;2022-07-19T07:44:46;14.30;;;5.30;;
44440;SDS011;30146;52.268;20.944;2022-07-19T07:47:17;12.50;;;5.80;;
44440;SDS011;30146;52.268;20.944;2022-07-19T07:49:50;11.10;;;5.00;;
44440;SDS011;30146;52.268;20.944;2022-07-19T07:52:23;13.00;;;5.00;;
44440;SDS011;30146;52.268;20.944;2022-07-19T07:54:54;16.50;;;5.30;;
44440;SDS011;30146;52.268;20.944;2022-07-19T07:57:46;10.30;;;4.80;;
44440;SDS011;30146;52.268;20.944;2022-07-19T08:00:17;9.90;;;4.60;;
44440;SDS011;30146;52.268;20.944;2022-07-19T08:02:49;9.90;;;4.70;;
44440;SDS011;30146;52.268;20.944;2022-07-19T08:05:21;13.10;;;4.70;;
44440;SDS011;30146;52.268;20.944;2022-07-19T08:07:54;15.10;;;4.90;;
44440;SDS011;30146;52.268;20.944;2022-07-19T08:10:27;7.90;;;4.20;;
44440;SDS011;30146;52.268;20.944;2022-07-19T08:13:01;9.60;;;4.80;;
44440;SDS011;30146;52.268;20.944;2022-07-19T08:15:52;11.50;;;4.50;;
44440;SDS011;30146;52.268;20.944;2022-07-19T08:18:24;7.60;;;4.40;;
44440;SDS011;30146;52.268;20.944;2022-07-19T08:21:06;8.70;;;4.10;;
44440;SDS011;30146;52.268;20.944;2022-07-19T08:23:47;6.30;;;3.90;;
44440;SDS011;30146;52.268;20.944;2022-07-19T08:26:19;6.30;;;4.20;;
44440;SDS011;30146;52.268;20.944;2022-07-19T08:28:51;4.20;;;3.30;;
44440;SDS011;30146;52.268;20.944;2022-07-19T08:31:25;9.80;;;6.10;;
44440;SDS011;30146;52.268;20.944;2022-07-19T08:33:57;12.30;;;5.10;;
44440;SDS011;30146;52.268;20.944;2022-07-19T08:36:29;7.90;;;4.90;;
44440;SDS011;30146;52.268;20.944;2022-07-19T08:39:00;6.60;;;4.20;;
44440;SDS011;30146;52.268;20.944;2022-07-19T08:41:33;6.20;;;3.70;;
44440;SDS011;30146;52.268;20.944;2022-07-19T08:44:10;10.10;;;4.30;;
44440;SDS011;30146;52.268;20.944;2022-07-19T08:46:42;7.20;;;4.00;;
44440;SDS011;30146;52.268;20.944;2022-07-19T08:49:14;7.50;;;3.70;;
44440;SDS011;30146;52.268;20.944;2022-07-19T08:51:49;7.80;;;3.60;;
44440;SDS011;30146;52.268;20.944;2022-07-19T08:54:23;8.60;;;3.50;;
44440;SDS011;30146;52.268;20.944;2022-07-19T08:57:02;10.90;;;3.90;;
44440;SDS011;30146;52.268;20.944;2022-07-19T09:00:06;6.20;;;3.70;;
44440;SDS011;30146;52.268;20.944;2022-07-19T09:02:51;6.10;;;3.80;;
44440;SDS011;30146;52.268;20.944;2022-07-19T09:05:25;9.30;;;3.70;;
44440;SDS011;30146;52.268;20.944;2022-07-19T09:08:05;10.50;;;3.80;;
44440;SDS011;30146;52.268;20.944;2022-07-19T09:10:39;13.80;;;3.60;;
44440;SDS011;30146;52.268;20.944;2022-07-19T09:13:14;8.60;;;2.90;;
44440;SDS011;30146;52.268;20.944;2022-07-19T09:19:35;5.40;;;3.40;;
44440;SDS011;30146;52.268;20.944;2022-07-19T09:22:09;4.70;;;3.20;;
44440;SDS011;30146;52.268;20.944;2022-07-19T09:24:43;11.90;;;7.30;;
44440;SDS011;30146;52.268;20.944;2022-07-19T09:27:19;7.90;;;4.60;;
44440;SDS011;30146;52.268;20.944;2022-07-19T09:29:54;6.20;;;2.30;;
44440;SDS011;30146;52.268;20.944;2022-07-19T09:34:58;8.00;;;3.50;;
44440;SDS011;30146;52.268;20.944;2022-07-19T09:37:33;6.30;;;3.50;;
44440;SDS011;30146;52.268;20.944;2022-07-19T09:40:08;11.80;;;3.90;;
44440;SDS011;30146;52.268;20.944;2022-07-19T09:42:41;11.00;;;3.30;;
44440;SDS011;30146;52.268;20.944;2022-07-19T09:45:15;4.70;;;3.10;;
44440;SDS011;30146;52.268;20.944;2022-07-19T09:47:51;7.40;;;3.00;;
44440;SDS011;30146;52.268;20.944;2022-07-19T09:50:24;7.10;;;2.80;;
44440;SDS011;30146;52.268;20.944;2022-07-19T09:52:56;4.00;;;3.00;;
44440;SDS011;30146;52.268;20.944;2022-07-19T09:55:32;4.40;;;2.80;;
44440;SDS011;30146;52.268;20.944;2022-07-19T09:58:04;8.10;;;2.90;;
44440;SDS011;30146;52.268;20.944;2022-07-19T10:00:36;8.30;;;3.50;;
44440;SDS011;30146;52.268;20.944;2022-07-19T10:03:09;5.00;;;3.00;;
44440;SDS011;30146;52.268;20.944;2022-07-19T10:05:44;6.20;;;3.20;;
44440;SDS011;30146;52.268;20.944;2022-07-19T10:08:15;6.20;;;3.40;;
44440;SDS011;30146;52.268;20.944;2022-07-19T10:10:47;6.60;;;3.20;;
44440;SDS011;30146;52.268;20.944;2022-07-19T10:13:19;4.30;;;3.50;;
44440;SDS011;30146;52.268;20.944;2022-07-19T10:15:51;5.50;;;3.20;;
44440;SDS011;30146;52.268;20.944;2022-07-19T10:18:37;6.70;;;3.10;;
44440;SDS011;30146;52.268;20.944;2022-07-19T10:21:21;8.10;;;3.20;;
44440;SDS011;30146;52.268;20.944;2022-07-19T10:23:55;5.00;;;2.90;;
44440;SDS011;30146;52.268;20.944;2022-07-19T10:26:34;5.80;;;3.00;;
44440;SDS011;30146;52.268;20.944;2022-07-19T10:29:10;8.60;;;3.50;;
44440;SDS011;30146;52.268;20.944;2022-07-19T10:31:59;5.70;;;2.90;;
44440;SDS011;30146;52.268;20.944;2022-07-19T10:34:34;6.90;;;3.60;;
44440;SDS011;30146;52.268;20.944;2022-07-19T10:37:07;9.10;;;3.70;;
44440;SDS011;30146;52.268;20.944;2022-07-19T10:39:40;8.50;;;3.10;;
44440;SDS011;30146;52.268;20.944;2022-07-19T10:42:16;5.10;;;3.30;;
44440;SDS011;30146;52.268;20.944;2022-07-19T10:50:59;8.50;;;3.30;;
44440;SDS011;30146;52.268;20.944;2022-07-19T10:56:26;4.60;;;3.40;;
44440;SDS011;30146;52.268;20.944;2022-07-19T10:59:28;8.80;;;4.80;;
44440;SDS011;30146;52.268;20.944;2022-07-19T11:02:02;10.80;;;3.90;;
44440;SDS011;30146;52.268;20.944;2022-07-19T11:04:54;7.30;;;3.60;;
44440;SDS011;30146;52.268;20.944;2022-07-19T11:07:28;10.40;;;3.90;;
44440;SDS011;30146;52.268;20.944;2022-07-19T11:10:02;4.10;;;3.60;;
44440;SDS011;30146;52.268;20.944;2022-07-19T11:12:35;6.70;;;4.00;;
44440;SDS011;30146;52.268;20.944;2022-07-19T11:15:09;5.10;;;3.70;;
44440;SDS011;30146;52.268;20.944;2022-07-19T11:17:51;6.90;;;3.50;;
44440;SDS011;30146;52.268;20.944;2022-07-19T11:20:26;6.80;;;3.90;;
44440;SDS011;30146;52.268;20.944;2022-07-19T11:23:03;11.20;;;3.80;;
44440;SDS011;30146;52.268;20.944;2022-07-19T11:25:36;8.00;;;3.70;;
44440;SDS011;30146;52.268;20.944;2022-07-19T11:28:20;8.10;;;3.90;;
44440;SDS011;30146;52.268;20.944;2022-07-19T11:30:53;6.20;;;3.20;;
44440;SDS011;30146;52.268;20.944;2022-07-19T11:33:24;6.30;;;3.80;;
44440;SDS011;30146;52.268;20.944;2022-07-19T11:35:57;7.30;;;3.80;;
44440;SDS011;30146;52.268;20.944;2022-07-19T11:38:40;6.20;;;3.90;;
44440;SDS011;30146;52.268;20.944;2022-07-19T11:41:20;5.70;;;3.60;;
44440;SDS011;30146;52.268;20.944;2022-07-19T11:43:53;8.10;;;3.50;;
44440;SDS011;30146;52.268;20.944;2022-07-19T11:46:27;7.70;;;3.50;;
44440;SDS011;30146;52.268;20.944;2022-07-19T11:49:01;7.10;;;4.00;;
44440;SDS011;30146;52.268;20.944;2022-07-19T11:51:35;4.40;;;3.10;;
44440;SDS011;30146;52.268;20.944;2022-07-19T11:54:07;5.20;;;3.40;;
44440;SDS011;30146;52.268;20.944;2022-07-19T11:56:42;5.10;;;3.40;;
44440;SDS011;30146;52.268;20.944;2022-07-19T11:59:14;9.80;;;3.40;;
44440;SDS011;30146;52.268;20.944;2022-07-19T12:01:46;5.80;;;3.30;;
44440;SDS011;30146;52.268;20.944;2022-07-19T12:04:17;7.20;;;3.20;;
44440;SDS011;30146;52.268;20.944;2022-07-19T12:06:52;5.30;;;3.50;;
44440;SDS011;30146;52.268;20.944;2022-07-19T12:09:29;8.50;;;3.50;;
44440;SDS011;30146;52.268;20.944;2022-07-19T12:12:11;6.80;;;3.80;;
44440;SDS011;30146;52.268;20.944;2022-07-19T12:14:45;10.80;;;3.20;;
44440;SDS011;30146;52.268;20.944;2022-07-19T12:17:17;4.90;;;3.50;;
44440;SDS011;30146;52.268;20.944;2022-07-19T12:19:52;4.60;;;3.00;;
44440;SDS011;30146;52.268;20.944;2022-07-19T12:23:11;5.30;;;3.70;;
44440;SDS011;30146;52.268;20.944;2022-07-19T12:25:44;9.30;;;3.60;;
44440;SDS011;30146;52.268;20.944;2022-07-19T12:28:16;6.70;;;3.40;;
44440;SDS011;30146;52.268;20.944;2022-07-19T12:31:01;6.00;;;3.60;;
44440;SDS011;30146;52.268;20.944;2022-07-19T12:33:34;6.20;;;3.90;;
44440;SDS011;30146;52.268;20.944;2022-07-19T12:39:03;6.80;;;3.50;;
44440;SDS011;30146;52.268;20.944;2022-07-19T12:41:53;7.60;;;4.20;;
44440;SDS011;30146;52.268;20.944;2022-07-19T12:44:30;7.50;;;3.80;;
44440;SDS011;30146;52.268;20.944;2022-07-19T12:49:56;7.00;;;3.80;;
44440;SDS011;30146;52.268;20.944;2022-07-19T12:52:38;5.80;;;3.80;;
44440;SDS011;30146;52.268;20.944;2022-07-19T12:55:10;5.00;;;3.10;;
44440;SDS011;30146;52.268;20.944;2022-07-19T12:57:47;3.90;;;3.00;;
44440;SDS011;30146;52.268;20.944;2022-07-19T13:00:21;8.70;;;4.60;;
44440;SDS011;30146;52.268;20.944;2022-07-19T13:02:56;6.10;;;3.40;;
44440;SDS011;30146;52.268;20.944;2022-07-19T13:05:28;8.60;;;4.00;;
44440;SDS011;30146;52.268;20.944;2022-07-19T13:08:00;19.80;;;4.50;;
44440;SDS011;30146;52.268;20.944;2022-07-19T13:10:35;4.40;;;3.30;;
44440;SDS011;30146;52.268;20.944;2022-07-19T13:13:07;4.60;;;3.90;;
44440;SDS011;30146;52.268;20.944;2022-07-19T13:15:40;7.50;;;3.80;;
44440;SDS011;30146;52.268;20.944;2022-07-19T13:18:11;7.00;;;3.60;;
44440;SDS011;30146;52.268;20.944;2022-07-19T13:20:43;6.10;;;3.60;;
44440;SDS011;30146;52.268;20.944;2022-07-19T13:23:16;8.80;;;3.50;;
44440;SDS011;30146;52.268;20.944;2022-07-19T13:25:48;6.80;;;3.70;;
44440;SDS011;30146;52.268;20.944;2022-07-19T13:28:19;5.60;;;3.70;;
44440;SDS011;30146;52.268;20.944;2022-07-19T13:30:51;11.00;;;3.80;;
44440;SDS011;30146;52.268;20.944;2022-07-19T13:33:24;10.40;;;4.00;;
44440;SDS011;30146;52.268;20.944;2022-07-19T13:36:02;5.10;;;3.30;;
44440;SDS011;30146;52.268;20.944;2022-07-19T13:39:28;8.60;;;3.90;;
44440;SDS011;30146;52.268;20.944;2022-07-19T13:41:59;5.60;;;4.00;;
44440;SDS011;30146;52.268;20.944;2022-07-19T13:44:31;7.50;;;3.70;;
44440;SDS011;30146;52.268;20.944;2022-07-19T13:47:03;6.40;;;3.90;;
44440;SDS011;30146;52.268;20.944;2022-07-19T13:49:34;7.70;;;3.50;;
44440;SDS011;30146;52.268;20.944;2022-07-19T13:52:06;6.00;;;4.00;;
44440;SDS011;30146;52.268;20.944;2022-07-19T13:54:37;5.00;;;3.50;;
44440;SDS011;30146;52.268;20.944;2022-07-19T13:57:09;8.90;;;3.80;;
44440;SDS011;30146;52.268;20.944;2022-07-19T13:59:48;4.50;;;3.90;;
44440;SDS011;30146;52.268;20.944;2022-07-19T14:02:57;5.60;;;3.70;;
44440;SDS011;30146;52.268;20.944;2022-07-19T14:05:29;6.20;;;3.80;;
44440;SDS011;30146;52.268;20.944;2022-07-19T14:08:00;6.60;;;3.80;;
44440;SDS011;30146;52.268;20.944;2022-07-19T14:10:37;7.00;;;3.50;;
44440;SDS011;30146;52.268;20.944;2022-07-19T14:19:18;8.70;;;3.80;;
44440;SDS011;30146;52.268;20.944;2022-07-19T14:22:11;7.50;;;3.90;;
44440;SDS011;30146;52.268;20.944;2022-07-19T14:24:47;8.40;;;3.80;;
44440;SDS011;30146;52.268;20.944;2022-07-19T14:27:18;7.10;;;3.90;;
44440;SDS011;30146;52.268;20.944;2022-07-19T14:29:50;7.40;;;4.20;;
44440;SDS011;30146;52.268;20.944;2022-07-19T14:32:21;6.00;;;3.60;;
44440;SDS011;30146;52.268;20.944;2022-07-19T14:34:53;12.80;;;4.50;;
44440;SDS011;30146;52.268;20.944;2022-07-19T14:40:17;7.20;;;3.80;;
44440;SDS011;30146;52.268;20.944;2022-07-19T14:42:52;5.90;;;3.50;;
44440;SDS011;30146;52.268;20.944;2022-07-19T14:45:24;6.40;;;3.80;;
44440;SDS011;30146;52.268;20.944;2022-07-19T14:47:55;4.60;;;3.70;;
44440;SDS011;30146;52.268;20.944;2022-07-19T14:50:27;6.00;;;4.00;;
44440;SDS011;30146;52.268;20.944;2022-07-19T14:52:59;6.70;;;3.60;;
44440;SDS011;30146;52.268;20.944;2022-07-19T14:55:30;6.40;;;4.50;;
44440;SDS011;30146;52.268;20.944;2022-07-19T14:58:02;8.00;;;4.50;;
44440;SDS011;30146;52.268;20.944;2022-07-19T15:00:33;6.30;;;3.70;;
44440;SDS011;30146;52.268;20.944;2022-07-19T15:03:06;7.40;;;3.40;;
44440;SDS011;30146;52.268;20.944;2022-07-19T15:05:38;5.80;;;3.80;;
44440;SDS011;30146;52.268;20.944;2022-07-19T15:08:10;4.40;;;3.50;;
44440;SDS011;30146;52.268;20.944;2022-07-19T15:10:46;7.00;;;4.20;;
44440;SDS011;30146;52.268;20.944;2022-07-19T15:13:18;6.20;;;4.00;;
44440;SDS011;30146;52.268;20.944;2022-07-19T15:15:50;5.30;;;3.90;;
44440;SDS011;30146;52.268;20.944;2022-07-19T15:18:25;7.40;;;4.20;;
44440;SDS011;30146;52.268;20.944;2022-07-19T15:20:56;4.00;;;3.20;;
44440;SDS011;30146;52.268;20.944;2022-07-19T15:23:29;6.00;;;3.60;;
44440;SDS011;30146;52.268;20.944;2022-07-19T15:26:02;6.20;;;4.00;;
44440;SDS011;30146;52.268;20.944;2022-07-19T15:28:34;6.20;;;3.80;;
44440;SDS011;30146;52.268;20.944;2022-07-19T15:31:06;5.20;;;3.40;;
44440;SDS011;30146;52.268;20.944;2022-07-19T15:33:37;7.00;;;4.10;;
44440;SDS011;30146;52.268;20.944;2022-07-19T15:36:09;9.90;;;4.20;;
44440;SDS011;30146;52.268;20.944;2022-07-19T15:38:40;5.70;;;3.70;;